Hat Creek, California
Current Conditions -  °F | °C
As of 9:53 PM on Wednesday 28 Jan 2015 (Local Time) from KRDD Reporting Station
Clear Clear  
Wind Chill: 55°   Ceiling: Unl
Heat Index: 55°   Visibility: 10mi
Dew Point: 41°   Wind: 6mph
Humidity: 59%   Direction: 330°NNW
Pressure: 30.15"   Gusts: NA
Location:  40.79°N, 121.51°W
Report Text: KRDD 290553Z AUTO 33005KT 10SM CLR 13/05 A3015 RMK AO2 SLP210 T01280050 10233 20094 51005
Loading
Personal Weather Stations






























Interactive Weather Map New forecast layout! Learn more

10-Day Weather Forecast

Advertisements
Track Severe Weather on mobile